Time;durP1;ratioP1;P1;durP2;ratioP2;P2;SDS_P1;SDS_P2;PMS_P1;PMS_P2;Temp;Humidity;BMP_temperature;BMP_pressure;BME280_temperature;BME280_humidity;BME280_pressure;Samples;Min_cycle;Max_cycle;Signal;HPM_P1;HPM_P2
2023/01/15 00:01:35;;;;;;;19.92;2.38;;;6.60;99.90;;;;;;4993858;28;20097;-68
2023/01/15 00:04:03;;;;;;;16.48;2.45;;;6.60;99.90;;;;;;4994713;28;20057;-70
2023/01/15 00:06:31;;;;;;;17.83;2.30;;;6.50;99.90;;;;;;4990286;28;20041;-69
2023/01/15 00:08:57;;;;;;;23.35;2.97;;;6.50;99.90;;;;;;5010110;28;20438;-69
2023/01/15 00:11:23;;;;;;;18.00;3.15;;;6.60;99.90;;;;;;4971710;28;20124;-70
2023/01/15 00:13:49;;;;;;;13.40;1.83;;;6.50;99.90;;;;;;5007065;28;20409;-69
2023/01/15 00:16:20;;;;;;;15.98;2.20;;;6.50;99.90;;;;;;4992285;28;20571;-69
2023/01/15 00:18:51;;;;;;;20.38;2.15;;;6.50;99.90;;;;;;5011714;28;20040;-70
2023/01/15 00:21:17;;;;;;;20.10;2.08;;;6.50;99.90;;;;;;5000145;28;20046;-68
2023/01/15 00:29:14;;;;;;;18.80;2.38;;;6.50;99.90;;;;;;4984094;28;20079;-71
2023/01/15 00:31:40;;;;;;;23.23;2.50;;;6.50;99.90;;;;;;4993386;28;20088;-73
2023/01/15 00:34:06;;;;;;;18.58;2.83;;;6.50;99.90;;;;;;5008185;28;20034;-71
2023/01/15 00:36:33;;;;;;;14.65;2.33;;;6.50;99.90;;;;;;4979216;28;20462;-70
2023/01/15 00:39:02;;;;;;;18.77;1.95;;;6.50;99.90;;;;;;4992094;28;20137;-73
2023/01/15 00:41:28;;;;;;;20.73;2.30;;;6.50;99.90;;;;;;4992688;28;20069;-70
2023/01/15 00:43:54;;;;;;;15.20;1.85;;;6.50;99.90;;;;;;4987701;28;20069;-69
2023/01/15 00:46:20;;;;;;;13.43;2.08;;;6.50;99.90;;;;;;4992725;28;20476;-70
2023/01/15 00:48:45;;;;;;;17.77;1.85;;;6.50;99.90;;;;;;4993046;28;20381;-70
2023/01/15 00:51:11;;;;;;;12.52;1.98;;;6.50;99.90;;;;;;4988530;28;20050;-70
2023/01/15 00:53:36;;;;;;;22.02;2.65;;;6.50;99.90;;;;;;5011223;28;20072;-69
2023/01/15 00:56:02;;;;;;;11.00;1.88;;;6.40;99.90;;;;;;4994331;28;20050;-69
2023/01/15 00:58:28;;;;;;;22.73;2.35;;;6.40;99.90;;;;;;4992220;28;20373;-70
2023/01/15 01:00:55;;;;;;;26.35;2.65;;;6.40;99.90;;;;;;4991725;28;20034;-69
2023/01/15 01:03:21;;;;;;;16.25;2.28;;;6.40;99.90;;;;;;4991159;28;20038;-70
2023/01/15 01:05:46;;;;;;;14.70;2.30;;;6.40;99.90;;;;;;4993307;28;20056;-68
2023/01/15 01:08:12;;;;;;;16.60;2.35;;;6.40;99.90;;;;;;4996963;28;20050;-70
2023/01/15 01:10:38;;;;;;;22.27;2.22;;;6.40;99.90;;;;;;5014408;28;20507;-68
2023/01/15 01:13:04;;;;;;;23.95;2.05;;;6.30;99.90;;;;;;5005794;28;20258;-70
2023/01/15 01:15:33;;;;;;;14.35;1.88;;;6.30;99.90;;;;;;4999397;28;21149;-68
2023/01/15 01:17:59;;;;;;;24.00;2.20;;;6.30;99.90;;;;;;4996523;28;20424;-69
2023/01/15 01:20:25;;;;;;;15.93;1.65;;;6.30;99.90;;;;;;4991194;28;20038;-69
2023/01/15 01:22:51;;;;;;;14.27;2.08;;;6.30;99.90;;;;;;4992450;28;20536;-69
2023/01/15 01:25:17;;;;;;;18.63;2.28;;;6.30;99.90;;;;;;4985461;28;20033;-70
2023/01/15 01:27:44;;;;;;;22.60;2.10;;;6.30;99.90;;;;;;4998805;28;20042;-70
2023/01/15 01:30:10;;;;;;;23.48;2.22;;;6.20;99.90;;;;;;4984237;28;20056;-71
2023/01/15 01:32:36;;;;;;;18.17;2.30;;;6.30;99.90;;;;;;4995854;28;20124;-69
2023/01/15 01:35:02;;;;;;;19.27;2.55;;;6.20;99.90;;;;;;4996685;28;20093;-69
2023/01/15 01:37:27;;;;;;;14.25;2.03;;;6.20;99.90;;;;;;4995445;28;20037;-68
2023/01/15 01:39:54;;;;;;;19.33;1.88;;;6.20;99.90;;;;;;5015111;28;20125;-69
2023/01/15 01:42:20;;;;;;;15.82;1.90;;;6.20;99.90;;;;;;4972553;28;20126;-69
2023/01/15 01:44:45;;;;;;;18.88;2.10;;;6.20;99.90;;;;;;4988516;28;20040;-71
2023/01/15 01:47:21;;;;;;;19.90;2.17;;;6.20;99.90;;;;;;4995409;28;20528;-71
2023/01/15 01:49:53;;;;;;;15.77;2.35;;;6.20;99.90;;;;;;4994151;28;20046;-69
2023/01/15 01:52:42;;;;;;;24.23;2.00;;;6.20;99.90;;;;;;4996327;28;20061;-70
2023/01/15 01:55:09;;;;;;;19.95;2.53;;;6.20;99.90;;;;;;4994256;28;20100;-70
2023/01/15 01:57:35;;;;;;;16.17;2.25;;;6.20;99.90;;;;;;4994214;28;20435;-70
2023/01/15 02:00:04;;;;;;;17.05;2.03;;;6.10;99.90;;;;;;4991562;28;20025;-70
2023/01/15 02:02:30;;;;;;;21.85;2.50;;;6.10;99.90;;;;;;5011078;28;20042;-71
2023/01/15 02:04:56;;;;;;;15.73;1.83;;;6.10;99.90;;;;;;4993794;28;20099;-70
2023/01/15 02:07:21;;;;;;;12.30;1.65;;;6.10;99.90;;;;;;4995065;28;20030;-68
2023/01/15 02:09:47;;;;;;;21.23;2.20;;;6.10;99.90;;;;;;4994549;28;20038;-70
2023/01/15 02:12:24;;;;;;;14.57;2.55;;;6.10;99.90;;;;;;4994270;28;20038;-72
2023/01/15 02:15:12;;;;;;;19.30;2.10;;;6.10;99.90;;;;;;4989195;28;20037;-69
2023/01/15 02:18:03;;;;;;;16.20;2.70;;;6.00;99.90;;;;;;4997969;28;20485;-70
2023/01/15 02:20:46;;;;;;;22.60;2.65;;;6.10;99.90;;;;;;4986936;28;20045;-69
2023/01/15 02:23:32;;;;;;;20.45;2.80;;;6.00;99.90;;;;;;4999400;28;20413;-71
2023/01/15 02:26:14;;;;;;;19.23;2.47;;;6.00;99.90;;;;;;4985857;28;20096;-71
2023/01/15 02:28:47;;;;;;;16.93;2.73;;;6.10;99.90;;;;;;4985738;28;20489;-70
2023/01/15 02:31:15;;;;;;;21.35;2.20;;;6.10;99.90;;;;;;4986748;28;20121;-70
2023/01/15 02:34:04;;;;;;;18.02;2.53;;;6.00;99.90;;;;;;4986275;28;20044;-71
2023/01/15 02:36:34;;;;;;;14.55;2.40;;;6.00;99.90;;;;;;4985079;28;20152;-69
2023/01/15 02:39:06;;;;;;;22.63;2.47;;;6.10;99.90;;;;;;4987772;28;20108;-68
2023/01/15 02:41:46;;;;;;;20.35;2.42;;;6.00;99.90;;;;;;5000966;28;20041;-69
2023/01/15 02:44:15;;;;;;;21.58;2.50;;;6.00;99.90;;;;;;4986860;28;20065;-70
2023/01/15 02:46:42;;;;;;;18.13;2.40;;;6.00;99.90;;;;;;4982254;28;20408;-71
2023/01/15 02:49:14;;;;;;;21.40;2.63;;;6.00;99.90;;;;;;4987154;28;20037;-71
2023/01/15 02:51:49;;;;;;;16.88;2.67;;;6.00;99.90;;;;;;4983541;28;20176;-67
2023/01/15 02:54:18;;;;;;;19.65;2.28;;;6.00;99.90;;;;;;5002650;28;20034;-67
2023/01/15 02:56:47;;;;;;;13.52;2.60;;;6.00;99.90;;;;;;4986915;28;20120;-68
2023/01/15 02:59:20;;;;;;;15.02;2.95;;;6.00;99.90;;;;;;4987127;28;20049;-68
2023/01/15 03:01:57;;;;;;;18.05;2.42;;;6.00;99.90;;;;;;4981861;28;20132;-70
2023/01/15 03:04:47;;;;;;;14.32;1.83;;;6.00;99.90;;;;;;4983029;28;20033;-69
2023/01/15 03:07:51;;;;;;;20.92;2.33;;;6.00;99.90;;;;;;4986589;28;20069;-67
2023/01/15 03:10:17;;;;;;;23.23;3.00;;;6.00;99.90;;;;;;4997771;28;20237;-71
2023/01/15 03:13:02;;;;;;;17.58;2.10;;;6.00;99.90;;;;;;4987968;28;20135;-71
2023/01/15 03:16:41;;;;;;;24.38;3.45;;;6.00;99.90;;;;;;4984166;28;20056;-70
2023/01/15 03:19:19;;;;;;;18.63;2.40;;;6.00;99.90;;;;;;4983094;28;21141;-70
2023/01/15 03:22:04;;;;;;;21.75;3.17;;;6.00;99.90;;;;;;4983455;28;20038;-68
2023/01/15 03:24:33;;;;;;;19.60;3.05;;;6.10;99.90;;;;;;4984186;28;20033;-67
2023/01/15 03:27:00;;;;;;;22.27;2.47;;;6.00;99.90;;;;;;4989198;28;20037;-69
2023/01/15 03:29:31;;;;;;;17.17;3.47;;;6.00;99.90;;;;;;4984116;28;20077;-71
2023/01/15 03:32:02;;;;;;;21.75;2.42;;;6.00;99.90;;;;;;4985115;28;20404;-68
2023/01/15 03:34:36;;;;;;;18.65;2.67;;;6.00;99.90;;;;;;4988054;28;20049;-70
2023/01/15 03:37:02;;;;;;;19.10;2.50;;;6.00;99.90;;;;;;4986488;28;20048;-69
2023/01/15 03:39:28;;;;;;;16.70;2.35;;;6.00;99.90;;;;;;5003168;28;20038;-70
2023/01/15 03:42:09;;;;;;;20.90;2.58;;;6.00;99.90;;;;;;4980327;28;20046;-69
2023/01/15 03:44:42;;;;;;;15.40;2.05;;;6.00;99.90;;;;;;4970433;28;20041;-69
2023/01/15 03:47:21;;;;;;;18.52;2.33;;;6.00;99.90;;;;;;5006220;28;20045;-68
2023/01/15 03:49:59;;;;;;;19.33;2.30;;;6.00;99.90;;;;;;4984616;28;20053;-70
2023/01/15 03:52:35;;;;;;;14.52;1.90;;;5.90;99.90;;;;;;4984242;28;20095;-70
2023/01/15 03:55:16;;;;;;;15.90;2.00;;;5.90;99.90;;;;;;4983260;28;20478;-70
2023/01/15 03:58:10;;;;;;;23.90;2.42;;;5.80;99.90;;;;;;4998123;28;20440;-70
2023/01/15 04:00:40;;;;;;;18.80;2.40;;;5.80;99.90;;;;;;4985906;28;20499;-69
2023/01/15 04:03:09;;;;;;;20.75;2.80;;;5.80;99.90;;;;;;4984234;28;20041;-68
2023/01/15 04:05:37;;;;;;;14.50;2.90;;;5.80;99.90;;;;;;4988961;28;20048;-70
2023/01/15 04:08:03;;;;;;;20.92;2.70;;;5.80;99.90;;;;;;4982916;28;20103;-71
2023/01/15 04:10:29;;;;;;;19.42;1.88;;;5.80;99.90;;;;;;4998446;28;20467;-68
2023/01/15 04:12:56;;;;;;;17.40;2.42;;;5.80;99.90;;;;;;4987292;28;20034;-67
2023/01/15 04:15:21;;;;;;;17.90;2.10;;;5.90;99.90;;;;;;4984590;28;20392;-68
2023/01/15 04:17:47;;;;;;;25.00;3.05;;;5.90;99.90;;;;;;4986251;28;20038;-70
2023/01/15 04:20:12;;;;;;;20.67;2.25;;;5.90;99.90;;;;;;4985825;28;20469;-69
2023/01/15 04:22:38;;;;;;;16.60;2.08;;;5.90;99.90;;;;;;4985782;28;20087;-68
2023/01/15 04:25:05;;;;;;;23.42;2.85;;;5.80;99.90;;;;;;4986935;28;20038;-68
2023/01/15 04:27:31;;;;;;;22.52;2.20;;;5.90;99.90;;;;;;4984481;28;20393;-68
2023/01/15 04:29:57;;;;;;;19.38;2.38;;;5.80;99.90;;;;;;5001703;28;20088;-71
2023/01/15 04:32:22;;;;;;;17.88;2.28;;;5.80;99.90;;;;;;4988002;28;20034;-67
2023/01/15 04:34:49;;;;;;;16.95;2.70;;;5.80;99.90;;;;;;4983673;28;20081;-72
2023/01/15 04:37:16;;;;;;;17.20;2.13;;;5.80;99.90;;;;;;4986475;28;20437;-69
2023/01/15 04:39:41;;;;;;;18.65;2.30;;;5.80;99.90;;;;;;4983755;28;20038;-70
2023/01/15 04:44:59;;;;;;;18.45;2.03;;;5.70;99.90;;;;;;4986202;28;20103;-67
2023/01/15 04:47:24;;;;;;;18.05;2.80;;;5.70;99.90;;;;;;4985480;28;20199;-70
2023/01/15 04:49:50;;;;;;;19.75;2.28;;;5.70;99.90;;;;;;4990739;28;20053;-69
2023/01/15 04:52:16;;;;;;;14.38;2.20;;;5.70;99.90;;;;;;5001065;28;20053;-72
2023/01/15 04:54:42;;;;;;;19.92;2.17;;;5.70;99.90;;;;;;4988001;28;20034;-68
2023/01/15 04:57:07;;;;;;;16.05;2.38;;;5.70;99.90;;;;;;4986751;28;20473;-72
2023/01/15 04:59:33;;;;;;;23.35;2.63;;;5.70;99.90;;;;;;4992619;28;20038;-69
2023/01/15 05:01:58;;;;;;;14.90;2.50;;;5.70;99.90;;;;;;4987771;28;20038;-68
2023/01/15 05:04:24;;;;;;;20.85;2.50;;;5.60;99.90;;;;;;5006818;28;20038;-66
2023/01/15 05:06:50;;;;;;;18.55;2.25;;;5.60;99.90;;;;;;4986057;28;20069;-70
2023/01/15 05:09:16;;;;;;;16.70;2.30;;;5.60;99.90;;;;;;4990826;28;20382;-66
2023/01/15 05:11:41;;;;;;;20.15;2.55;;;5.60;99.90;;;;;;4985676;28;20517;-70
2023/01/15 05:14:08;;;;;;;19.35;2.35;;;5.50;99.90;;;;;;4986315;28;20095;-68
2023/01/15 05:16:34;;;;;;;19.58;2.42;;;5.60;99.90;;;;;;4972646;28;20129;-67
2023/01/15 05:19:02;;;;;;;21.17;2.70;;;5.60;99.90;;;;;;4994729;28;20044;-69
2023/01/15 05:21:34;;;;;;;13.73;2.60;;;5.60;99.90;;;;;;5004580;28;20104;-70
2023/01/15 05:24:02;;;;;;;20.90;3.00;;;5.60;99.90;;;;;;4987444;28;20397;-68
2023/01/15 05:26:30;;;;;;;16.85;2.78;;;5.60;99.90;;;;;;4991313;28;20312;-68
2023/01/15 05:28:58;;;;;;;15.93;2.92;;;5.60;99.90;;;;;;5007177;28;20084;-68
2023/01/15 05:31:24;;;;;;;17.50;2.42;;;5.60;99.90;;;;;;4987377;28;20049;-67
2023/01/15 05:33:51;;;;;;;13.85;2.17;;;5.60;99.90;;;;;;4989772;28;20134;-71
2023/01/15 05:36:20;;;;;;;23.48;2.47;;;5.50;99.90;;;;;;4988370;28;20045;-69
2023/01/15 05:38:46;;;;;;;19.55;2.67;;;5.50;99.90;;;;;;4990574;28;20722;-73
2023/01/15 05:44:07;;;;;;;22.45;2.17;;;5.50;99.90;;;;;;4991357;28;20051;-67
2023/01/15 05:46:34;;;;;;;23.17;2.38;;;5.40;99.90;;;;;;4990147;28;20042;-70
2023/01/15 05:49:01;;;;;;;18.58;2.70;;;5.50;99.90;;;;;;4987791;28;20046;-70
2023/01/15 05:51:28;;;;;;;18.10;2.50;;;5.50;99.90;;;;;;4986181;28;20042;-68
2023/01/15 05:53:54;;;;;;;13.70;2.13;;;5.60;99.90;;;;;;5006048;28;20034;-71
2023/01/15 05:56:19;;;;;;;17.15;2.40;;;5.50;99.90;;;;;;4990238;28;20096;-67
2023/01/15 05:58:45;;;;;;;15.48;1.90;;;5.50;99.90;;;;;;5004121;28;20038;-68
2023/01/15 06:01:11;;;;;;;18.35;2.42;;;5.50;99.90;;;;;;4988854;28;20048;-72
2023/01/15 06:03:36;;;;;;;13.25;2.00;;;5.40;99.90;;;;;;4985914;28;20038;-71
2023/01/15 06:06:03;;;;;;;12.30;2.00;;;5.30;99.90;;;;;;4987257;28;20042;-67
2023/01/15 06:08:29;;;;;;;14.27;2.10;;;5.30;99.90;;;;;;4987444;28;20037;-66
2023/01/15 06:10:55;;;;;;;15.25;1.90;;;5.30;99.90;;;;;;4989104;28;20464;-68
2023/01/15 06:13:21;;;;;;;19.40;2.15;;;5.20;99.90;;;;;;4985617;28;20514;-69
2023/01/15 06:15:47;;;;;;;17.52;2.63;;;5.30;99.90;;;;;;4990671;28;20046;-72
2023/01/15 06:18:12;;;;;;;16.23;2.22;;;5.20;99.90;;;;;;4994760;28;20603;-68
2023/01/15 06:20:41;;;;;;;17.25;2.17;;;5.20;99.90;;;;;;5004938;28;20038;-70
2023/01/15 06:23:08;;;;;;;13.35;2.05;;;5.20;99.90;;;;;;5004386;28;20109;-68
2023/01/15 06:25:35;;;;;;;17.90;2.30;;;5.20;99.90;;;;;;4991561;28;20620;-69
2023/01/15 06:28:03;;;;;;;21.48;2.40;;;5.20;99.90;;;;;;4989096;28;20060;-71
2023/01/15 06:30:28;;;;;;;19.02;2.20;;;5.10;99.90;;;;;;4987944;28;20042;-68
2023/01/15 06:32:54;;;;;;;20.38;2.90;;;5.10;99.90;;;;;;4988823;28;20041;-69
2023/01/15 06:35:19;;;;;;;16.05;2.05;;;5.00;99.90;;;;;;4990365;28;20042;-68
2023/01/15 06:37:45;;;;;;;17.38;2.25;;;5.00;99.90;;;;;;4991371;28;20034;-70
2023/01/15 06:40:12;;;;;;;21.33;2.78;;;4.90;99.90;;;;;;4994141;28;20144;-70
2023/01/15 06:48:06;;;;;;;14.65;2.22;;;5.00;99.90;;;;;;4993180;28;20080;-67
2023/01/15 06:50:32;;;;;;;21.02;2.47;;;4.90;99.90;;;;;;4993230;28;20559;-68
2023/01/15 06:52:58;;;;;;;16.75;2.10;;;4.90;99.90;;;;;;4993591;28;20329;-69
2023/01/15 06:55:23;;;;;;;16.63;2.08;;;4.90;99.90;;;;;;4995142;28;20038;-68
2023/01/15 06:57:49;;;;;;;19.00;2.00;;;4.90;99.90;;;;;;4995381;28;20038;-69
2023/01/15 07:00:15;;;;;;;15.43;2.25;;;4.90;99.90;;;;;;4995097;28;20043;-68
2023/01/15 07:02:41;;;;;;;10.48;1.65;;;4.90;99.90;;;;;;4992431;28;20041;-68
2023/01/15 07:05:07;;;;;;;15.50;2.28;;;4.90;99.90;;;;;;4992660;28;20045;-72
2023/01/15 07:07:33;;;;;;;15.18;2.03;;;4.90;99.90;;;;;;4992502;28;20044;-70
2023/01/15 07:09:58;;;;;;;14.15;1.85;;;5.00;99.90;;;;;;4989830;28;20046;-70
2023/01/15 07:12:24;;;;;;;15.38;2.00;;;5.00;99.90;;;;;;5001296;28;20523;-70
2023/01/15 07:14:51;;;;;;;10.10;1.65;;;5.00;99.90;;;;;;4992272;28;20056;-67
2023/01/15 07:17:18;;;;;;;15.07;2.13;;;5.00;99.90;;;;;;4991462;28;20073;-67
2023/01/15 07:19:45;;;;;;;11.10;1.95;;;4.90;99.90;;;;;;5005694;28;20113;-71
2023/01/15 07:22:11;;;;;;;14.40;1.85;;;4.90;99.90;;;;;;4990108;28;20049;-70
2023/01/15 07:24:37;;;;;;;15.07;2.08;;;4.90;99.90;;;;;;4990770;28;20077;-71
2023/01/15 07:27:02;;;;;;;13.50;2.00;;;4.90;99.90;;;;;;4990012;28;20041;-67
2023/01/15 07:29:28;;;;;;;12.80;2.33;;;4.90;99.90;;;;;;4992490;28;20054;-70
2023/01/15 07:31:55;;;;;;;19.95;1.80;;;4.90;99.90;;;;;;4989567;28;20061;-67
2023/01/15 07:34:21;;;;;;;10.90;1.67;;;4.90;99.90;;;;;;4993630;28;20050;-69
2023/01/15 07:36:47;;;;;;;14.32;1.83;;;4.90;99.90;;;;;;4988879;28;20168;-66
2023/01/15 07:39:12;;;;;;;19.70;2.30;;;4.70;99.90;;;;;;4993331;28;20042;-67
2023/01/15 07:50:09;;;;;;;17.80;1.73;;;4.70;99.90;;;;;;5002930;28;20551;-70
2023/01/15 07:52:35;;;;;;;13.02;1.85;;;4.60;99.90;;;;;;5002110;28;20578;-70
2023/01/15 07:55:02;;;;;;;10.80;1.40;;;4.60;99.90;;;;;;4969556;28;20184;-69
2023/01/15 07:57:28;;;;;;;16.20;2.00;;;4.60;99.90;;;;;;4974350;28;20045;-71
2023/01/15 07:59:54;;;;;;;11.85;1.85;;;4.60;99.90;;;;;;4991146;28;20325;-68
2023/01/15 08:02:19;;;;;;;16.38;1.88;;;4.60;99.90;;;;;;5005767;28;20040;-71
2023/01/15 08:04:46;;;;;;;9.75;1.40;;;4.70;99.90;;;;;;4991533;28;20034;-66
2023/01/15 08:07:13;;;;;;;13.48;1.60;;;4.70;99.90;;;;;;4992221;28;20070;-69
2023/01/15 08:09:39;;;;;;;11.27;1.80;;;4.60;99.90;;;;;;5009958;28;20048;-70
2023/01/15 08:17:38;;;;;;;16.40;1.77;;;4.60;99.90;;;;;;4991113;28;20400;-70
2023/01/15 08:20:08;;;;;;;16.23;2.50;;;4.70;99.90;;;;;;4992008;28;20084;-68
2023/01/15 08:22:34;;;;;;;14.13;2.03;;;4.70;99.90;;;;;;4995804;28;20038;-68
2023/01/15 08:25:00;;;;;;;13.25;1.70;;;4.70;99.90;;;;;;4996170;28;20056;-67
2023/01/15 08:27:27;;;;;;;15.80;2.25;;;4.70;99.90;;;;;;4992347;28;20072;-71
2023/01/15 08:29:53;;;;;;;18.83;2.45;;;4.70;99.90;;;;;;4996777;28;20076;-67
2023/01/15 08:32:18;;;;;;;17.17;1.83;;;4.70;99.90;;;;;;4994322;28;20453;-69
2023/01/15 08:34:44;;;;;;;14.75;1.70;;;4.80;99.90;;;;;;4994022;28;20057;-67
2023/01/15 08:37:10;;;;;;;16.98;1.90;;;4.80;99.90;;;;;;4993979;28;20151;-68
2023/01/15 08:39:35;;;;;;;12.98;1.80;;;4.90;99.90;;;;;;4994755;28;20058;-69
2023/01/15 08:42:01;;;;;;;13.15;1.40;;;4.90;99.90;;;;;;4991929;28;20037;-69
2023/01/15 08:44:26;;;;;;;17.05;1.85;;;5.00;99.90;;;;;;4995047;28;20453;-66
2023/01/15 08:46:52;;;;;;;18.25;2.15;;;5.00;99.90;;;;;;4996052;28;20052;-72
2023/01/15 08:49:19;;;;;;;12.35;1.98;;;5.10;99.90;;;;;;4991783;28;20072;-70
2023/01/15 08:51:50;;;;;;;12.77;1.77;;;5.10;99.90;;;;;;4987923;28;20386;-67
2023/01/15 08:54:18;;;;;;;11.07;1.98;;;5.10;99.90;;;;;;4994969;28;20424;-72
2023/01/15 08:56:44;;;;;;;8.93;1.60;;;5.00;99.90;;;;;;4991453;28;20608;-68
2023/01/15 08:59:10;;;;;;;10.05;1.73;;;4.90;99.90;;;;;;4990149;28;20455;-68
2023/01/15 09:01:36;;;;;;;8.00;1.45;;;4.60;99.90;;;;;;4971341;28;20124;-71
2023/01/15 09:04:02;;;;;;;12.88;2.00;;;4.40;99.90;;;;;;4992131;28;20054;-71
2023/01/15 09:06:27;;;;;;;10.23;1.80;;;4.20;99.90;;;;;;4993855;28;20038;-73
2023/01/15 09:08:55;;;;;;;16.25;2.13;;;4.00;99.90;;;;;;4995414;28;20077;-66
2023/01/15 09:11:20;;;;;;;12.23;1.73;;;4.10;99.90;;;;;;4996543;28;20088;-73
2023/01/15 09:13:47;;;;;;;12.88;2.20;;;4.10;99.90;;;;;;4995610;28;20050;-69
2023/01/15 09:16:12;;;;;;;9.57;1.70;;;4.00;99.90;;;;;;4985846;28;20042;-69
2023/01/15 09:18:38;;;;;;;15.70;2.65;;;4.10;99.90;;;;;;5006645;28;20052;-72
2023/01/15 09:21:05;;;;;;;14.77;2.03;;;4.20;99.90;;;;;;4991610;28;20129;-70
2023/01/15 09:23:31;;;;;;;18.33;1.95;;;4.10;99.90;;;;;;4973738;28;20038;-71
2023/01/15 09:26:04;;;;;;;16.63;2.30;;;4.00;99.90;;;;;;4976254;28;20081;-70
2023/01/15 09:28:30;;;;;;;15.85;2.20;;;4.00;99.90;;;;;;5007781;28;20254;-70
2023/01/15 09:30:55;;;;;;;15.02;2.08;;;4.10;99.90;;;;;;4985945;28;20061;-73
2023/01/15 09:33:21;;;;;;;12.50;2.33;;;4.10;99.90;;;;;;4989970;28;20052;-71
2023/01/15 09:35:47;;;;;;;9.30;1.60;;;4.20;99.90;;;;;;4992713;28;20050;-72
2023/01/15 09:38:17;;;;;;;17.25;2.30;;;4.20;99.90;;;;;;4991572;28;20067;-69
2023/01/15 09:40:55;;;;;;;13.15;2.00;;;4.30;99.90;;;;;;4988708;28;20038;-66
2023/01/15 09:43:21;;;;;;;16.02;1.98;;;4.40;99.90;;;;;;5006525;28;20041;-69
2023/01/15 09:45:54;;;;;;;17.25;2.67;;;4.40;99.90;;;;;;4990509;28;20500;-69
2023/01/15 09:48:32;;;;;;;15.82;2.00;;;4.50;99.90;;;;;;4987237;28;20505;-68
2023/01/15 09:51:19;;;;;;;20.80;2.45;;;4.60;99.90;;;;;;5005206;28;20073;-73
2023/01/15 09:53:55;;;;;;;10.68;2.08;;;4.60;99.90;;;;;;4987700;28;20057;-69
2023/01/15 09:56:28;;;;;;;12.48;2.03;;;4.70;99.90;;;;;;5005086;28;20146;-70
2023/01/15 09:58:56;;;;;;;18.20;2.42;;;4.80;99.90;;;;;;4974944;28;20155;-71
2023/01/15 10:01:29;;;;;;;15.63;2.20;;;4.80;99.90;;;;;;4987858;28;20235;-70
2023/01/15 10:04:21;;;;;;;14.10;2.55;;;4.90;99.90;;;;;;4986734;28;20038;-70
2023/01/15 10:06:57;;;;;;;17.15;2.35;;;4.90;99.90;;;;;;5001894;28;20054;-66
2023/01/15 10:09:33;;;;;;;16.65;2.47;;;4.90;99.90;;;;;;5003915;28;20046;-71
2023/01/15 10:14:57;;;;;;;20.80;2.20;;;4.90;99.90;;;;;;5005247;28;21196;-70
2023/01/15 10:17:38;;;;;;;24.57;2.80;;;4.90;99.90;;;;;;4985371;28;20050;-69
2023/01/15 10:20:05;;;;;;;21.10;2.53;;;4.90;99.90;;;;;;4989174;28;20042;-69
2023/01/15 10:22:47;;;;;;;17.35;2.78;;;4.90;99.90;;;;;;4987318;28;20625;-67
2023/01/15 10:25:23;;;;;;;15.02;2.22;;;5.00;99.90;;;;;;5006137;28;20497;-69
2023/01/15 10:27:51;;;;;;;12.45;1.88;;;5.10;99.90;;;;;;4989373;28;20452;-65
2023/01/15 10:30:20;;;;;;;16.85;1.98;;;5.20;99.90;;;;;;5004759;28;20052;-69
2023/01/15 10:32:52;;;;;;;17.55;2.03;;;5.20;99.90;;;;;;4989495;28;20312;-69
2023/01/15 10:35:25;;;;;;;15.65;1.90;;;5.20;99.90;;;;;;4986735;28;20046;-66
2023/01/15 10:38:04;;;;;;;14.75;2.28;;;5.20;99.90;;;;;;4991933;28;20050;-67
2023/01/15 10:40:38;;;;;;;18.70;2.80;;;5.20;99.90;;;;;;4983740;28;20045;-69
2023/01/15 10:43:24;;;;;;;16.95;2.50;;;5.10;99.90;;;;;;4997373;28;20041;-67
2023/01/15 10:45:57;;;;;;;15.90;2.50;;;5.20;99.90;;;;;;4992409;28;20050;-67
2023/01/15 10:48:40;;;;;;;14.02;1.90;;;5.20;99.90;;;;;;5007875;28;20053;-70
2023/01/15 10:51:15;;;;;;;17.17;2.35;;;5.20;99.90;;;;;;4988495;28;20059;-68
2023/01/15 10:54:22;;;;;;;18.63;2.85;;;5.30;99.90;;;;;;4990070;28;20050;-65
2023/01/15 10:57:12;;;;;;;16.58;2.45;;;5.30;99.90;;;;;;4996581;28;20136;-71
2023/01/15 10:59:50;;;;;;;24.38;2.20;;;5.50;99.90;;;;;;5010414;28;20038;-69
2023/01/15 11:02:39;;;;;;;19.88;2.95;;;5.50;99.90;;;;;;4990510;28;20045;-69
2023/01/15 11:05:05;;;;;;;19.58;3.15;;;5.70;99.90;;;;;;4987818;28;20042;-72
2023/01/15 11:07:41;;;;;;;12.00;2.20;;;5.70;99.90;;;;;;4998956;28;20092;-72
2023/01/15 11:10:16;;;;;;;19.38;2.67;;;5.80;99.90;;;;;;5004147;28;20049;-69
2023/01/15 11:21:29;;;;;;;21.33;2.58;;;5.90;99.90;;;;;;4994212;28;20515;-67
2023/01/15 11:23:56;;;;;;;16.23;2.45;;;5.90;99.90;;;;;;4990071;28;20038;-68
2023/01/15 11:26:28;;;;;;;15.07;2.53;;;6.00;99.90;;;;;;4989886;28;20048;-67
2023/01/15 11:28:55;;;;;;;17.52;2.10;;;6.20;99.90;;;;;;4989262;28;20116;-66
2023/01/15 11:31:21;;;;;;;18.65;2.00;;;6.20;99.90;;;;;;5006476;28;20433;-71
2023/01/15 11:34:02;;;;;;;17.25;1.92;;;6.30;99.90;;;;;;4987983;28;20056;-67
2023/01/15 11:36:30;;;;;;;14.25;1.85;;;6.30;99.90;;;;;;4991266;28;20125;-67
2023/01/15 11:38:55;;;;;;;20.73;3.05;;;6.30;99.90;;;;;;4990549;28;20049;-69
2023/01/15 11:52:51;;;;;;;21.38;2.53;;;6.60;99.90;;;;;;4990041;28;20541;-68
2023/01/15 11:55:19;;;;;;;13.75;1.88;;;6.60;99.90;;;;;;5004780;28;20042;-69
2023/01/15 11:57:46;;;;;;;13.95;2.03;;;6.70;99.90;;;;;;5003547;28;20037;-67
2023/01/15 12:00:20;;;;;;;17.48;2.15;;;6.70;99.90;;;;;;4986530;28;20121;-69
2023/01/15 12:02:51;;;;;;;12.40;1.83;;;6.60;99.90;;;;;;4988015;28;20056;-68
2023/01/15 12:05:23;;;;;;;16.83;2.10;;;6.50;99.90;;;;;;4990047;28;20033;-65
2023/01/15 12:07:52;;;;;;;16.42;2.08;;;6.50;99.90;;;;;;4992673;28;20435;-68
2023/01/15 12:13:28;;;;;;;15.45;2.13;;;6.50;99.90;;;;;;5006282;28;20460;-65
2023/01/15 12:16:18;;;;;;;20.70;3.05;;;6.60;99.90;;;;;;5008197;28;20038;-68
2023/01/15 12:19:07;;;;;;;17.55;2.83;;;6.70;99.90;;;;;;4993904;28;20045;-67
2023/01/15 12:22:11;;;;;;;20.00;1.95;;;6.70;99.90;;;;;;4990233;28;20034;-68
2023/01/15 12:24:37;;;;;;;12.45;2.40;;;6.60;99.90;;;;;;4990422;28;20066;-67
2023/01/15 12:27:19;;;;;;;17.23;1.90;;;6.60;99.90;;;;;;4991411;28;20081;-70
2023/01/15 12:29:47;;;;;;;16.83;2.37;;;6.60;99.90;;;;;;4991140;28;20077;-68
2023/01/15 12:32:21;;;;;;;16.35;2.90;;;6.60;99.90;;;;;;4991451;28;20072;-66
2023/01/15 12:34:59;;;;;;;11.88;1.83;;;6.60;99.90;;;;;;5009548;28;20042;-67
2023/01/15 12:37:43;;;;;;;20.65;2.80;;;6.60;99.90;;;;;;4982656;28;20056;-67
2023/01/15 12:40:31;;;;;;;14.82;2.95;;;6.60;99.90;;;;;;4989179;28;20125;-69
2023/01/15 12:45:47;;;;;;;15.18;2.20;;;6.50;99.90;;;;;;4994008;28;20057;-67
2023/01/15 12:48:28;;;;;;;18.73;2.60;;;6.60;99.90;;;;;;4990626;28;20056;-67
2023/01/15 12:50:57;;;;;;;11.27;2.03;;;6.60;99.90;;;;;;4986553;28;20073;-70
2023/01/15 12:53:46;;;;;;;9.45;1.70;;;6.50;99.90;;;;;;4990487;28;20127;-69
2023/01/15 12:56:34;;;;;;;11.95;2.30;;;6.30;99.90;;;;;;4991005;28;20042;-66
2023/01/15 12:59:20;;;;;;;9.55;1.75;;;6.10;99.90;;;;;;4990723;28;20038;-70
2023/01/15 13:02:20;;;;;;;12.23;1.98;;;6.00;99.90;;;;;;4994550;28;20133;-69
2023/01/15 13:04:56;;;;;;;16.55;2.17;;;6.00;99.90;;;;;;4993581;28;20038;-68
2023/01/15 13:07:54;;;;;;;14.73;2.97;;;6.00;99.90;;;;;;4994814;28;20073;-71
2023/01/15 13:10:24;;;;;;;22.80;3.20;;;6.10;99.90;;;;;;4994640;28;20068;-68
2023/01/15 13:13:17;;;;;;;17.02;2.92;;;6.20;99.90;;;;;;4995521;28;20049;-69
2023/01/15 13:15:57;;;;;;;;;;;6.30;99.90;;;;;;4991211;28;20058;-67
2023/01/15 13:18:30;;;;;;;17.02;2.85;;;6.40;99.90;;;;;;4979097;28;20017;-67
2023/01/15 13:20:59;;;;;;;15.77;2.10;;;6.40;99.90;;;;;;5005097;28;20125;-65
2023/01/15 13:23:40;;;;;;;17.33;2.20;;;6.50;99.90;;;;;;4994721;28;20049;-65
2023/01/15 13:26:44;;;;;;;17.33;2.35;;;6.50;99.90;;;;;;4994427;28;20124;-67
2023/01/15 13:29:35;;;;;;;23.77;3.33;;;6.50;99.90;;;;;;4994324;28;20125;-68
2023/01/15 13:32:16;;;;;;;16.45;2.38;;;6.60;99.90;;;;;;4995147;28;20092;-68
2023/01/15 13:35:09;;;;;;;17.50;2.67;;;6.70;99.90;;;;;;4993398;28;20045;-68
2023/01/15 13:37:49;;;;;;;18.65;2.22;;;6.90;99.90;;;;;;5010046;28;20495;-67
2023/01/15 13:40:27;;;;;;;16.15;2.42;;;6.90;99.90;;;;;;4993895;28;20045;-67
2023/01/15 13:42:54;;;;;;;18.27;2.13;;;6.90;99.90;;;;;;4990375;28;20038;-68
2023/01/15 13:45:38;;;;;;;21.85;2.60;;;6.90;99.90;;;;;;4993197;28;20041;-69
2023/01/15 13:48:32;;;;;;;16.98;2.40;;;6.90;99.90;;;;;;4994291;28;20042;-66
2023/01/15 13:51:00;;;;;;;13.68;2.58;;;6.80;99.90;;;;;;5010291;28;20034;-67
2023/01/15 13:53:38;;;;;;;16.15;2.85;;;6.80;99.90;;;;;;4984802;28;20046;-66
2023/01/15 13:56:11;;;;;;;18.00;2.67;;;6.70;99.90;;;;;;4993497;28;20044;-67
2023/01/15 13:58:56;;;;;;;25.23;3.00;;;6.70;99.90;;;;;;4994522;28;20046;-66
2023/01/15 14:01:25;;;;;;;20.80;2.85;;;6.70;99.90;;;;;;5016064;28;20071;-66
2023/01/15 14:04:08;;;;;;;17.92;2.90;;;6.70;99.90;;;;;;4997781;28;20096;-68
2023/01/15 14:06:47;;;;;;;;;;;6.60;99.90;;;;;;4995355;28;20080;-68
2023/01/15 14:09:28;;;;;;;5.97;1.42;;;6.50;99.90;;;;;;5010489;28;20289;-69